createdAt,value
2022-10-06T00:01:09.661Z,64.74
2022-10-06T00:03:41.452Z,62.88
2022-10-06T00:06:10.176Z,55.94
2022-10-06T00:08:38.433Z,55.39
2022-10-06T00:11:06.492Z,56.19
2022-10-06T00:15:16.003Z,57.96
2022-10-06T00:17:43.517Z,63.34
2022-10-06T00:20:11.223Z,62.23
2022-10-06T00:22:45.201Z,56.00
2022-10-06T00:25:15.064Z,56.19
2022-10-06T00:27:43.544Z,58.14
2022-10-06T00:30:24.661Z,61.18
2022-10-06T00:32:57.370Z,64.56
2022-10-06T00:35:25.664Z,58.40
2022-10-06T00:37:53.274Z,55.84
2022-10-06T00:40:21.281Z,57.87
2022-10-06T00:43:01.635Z,59.93
2022-10-06T00:45:33.706Z,63.64
2022-10-06T00:48:05.113Z,59.71
2022-10-06T00:50:32.624Z,56.63
2022-10-06T00:53:00.128Z,57.68
2022-10-06T00:55:27.618Z,59.69
2022-10-06T00:57:55.197Z,62.07
2022-10-06T01:00:22.752Z,64.09
2022-10-06T01:02:59.281Z,59.28
2022-10-06T01:05:29.312Z,56.88
2022-10-06T01:07:56.881Z,59.31
2022-10-06T01:10:24.428Z,59.95
2022-10-06T01:12:53.241Z,61.57
2022-10-06T01:15:21.548Z,65.14
2022-10-06T01:17:52.977Z,63.17
2022-10-06T01:20:21.047Z,56.18
2022-10-06T01:22:51.340Z,54.77
2022-10-06T01:25:19.040Z,55.83
2022-10-06T01:27:51.350Z,59.71
2022-10-06T01:30:23.536Z,61.17
2022-10-06T01:32:51.047Z,64.03
2022-10-06T01:35:18.714Z,58.63
2022-10-06T01:37:46.220Z,55.27
2022-10-06T01:40:13.896Z,55.66
2022-10-06T01:42:41.726Z,59.50
2022-10-06T01:45:09.777Z,60.46
2022-10-06T01:47:37.286Z,63.01
2022-10-06T01:50:08.309Z,63.56
2022-10-06T01:52:36.340Z,57.91
2022-10-06T01:55:04.397Z,54.75
2022-10-06T01:57:32.236Z,55.94
2022-10-06T01:59:59.840Z,58.67
2022-10-06T02:02:30.680Z,60.16
2022-10-06T02:04:59.344Z,63.34
2022-10-06T02:07:27.057Z,61.59
2022-10-06T02:09:54.593Z,56.08
2022-10-06T02:12:22.163Z,55.11
2022-10-06T02:14:49.761Z,56.94
2022-10-06T02:17:17.251Z,58.76
2022-10-06T02:19:44.782Z,61.30
2022-10-06T02:22:12.282Z,64.66
2022-10-06T02:24:39.795Z,61.21
2022-10-06T02:27:08.161Z,56.25
2022-10-06T02:29:35.913Z,56.39
2022-10-06T02:32:03.875Z,58.48
2022-10-06T02:34:31.448Z,60.27
2022-10-06T02:36:58.949Z,63.88
2022-10-06T02:39:26.581Z,61.98
2022-10-06T02:41:54.232Z,55.67
2022-10-06T02:44:23.291Z,55.21
2022-10-06T02:46:53.742Z,57.20
2022-10-06T02:49:21.605Z,59.30
2022-10-06T02:51:49.511Z,62.84
2022-10-06T02:54:17.275Z,63.35
2022-10-06T02:56:45.412Z,57.38
2022-10-06T02:59:13.917Z,54.82
2022-10-06T03:01:41.767Z,57.08
2022-10-06T03:04:12.822Z,60.01
2022-10-06T03:06:42.129Z,61.68
2022-10-06T03:09:24.291Z,65.59
2022-10-06T03:11:52.548Z,60.86
2022-10-06T03:14:28.960Z,57.08
2022-10-06T03:16:56.750Z,55.35
2022-10-06T03:19:26.304Z,56.69
2022-10-06T03:21:54.040Z,59.38
2022-10-06T03:24:23.906Z,59.97
2022-10-06T03:26:54.320Z,62.02
2022-10-06T03:29:21.948Z,66.64
2022-10-06T03:31:53.179Z,60.28
2022-10-06T03:34:20.879Z,56.17
2022-10-06T03:36:48.554Z,57.07
2022-10-06T03:39:18.280Z,58.90
2022-10-06T03:41:45.951Z,60.05
2022-10-06T03:44:14.817Z,61.81
2022-10-06T03:46:43.277Z,67.31
2022-10-06T03:49:11.151Z,64.82
2022-10-06T03:51:40.090Z,61.04
2022-10-06T03:54:12.438Z,54.11
2022-10-06T03:56:42.096Z,54.04
2022-10-06T03:59:12.568Z,54.73
2022-10-06T04:01:42.738Z,56.62
2022-10-06T04:04:11.294Z,58.60
2022-10-06T04:06:41.560Z,61.05
2022-10-06T04:09:15.322Z,64.87
2022-10-06T04:11:44.094Z,60.49
2022-10-06T04:14:13.823Z,58.05
2022-10-06T04:16:42.320Z,55.64
2022-10-06T04:19:10.971Z,57.77
2022-10-06T04:21:42.246Z,59.39
2022-10-06T04:24:12.026Z,60.09
2022-10-06T04:26:46.647Z,63.20
2022-10-06T04:29:14.556Z,63.90
2022-10-06T04:31:42.793Z,61.76
2022-10-06T04:34:19.031Z,57.25
2022-10-06T04:36:47.537Z,54.95
2022-10-06T04:39:16.779Z,57.10
2022-10-06T04:41:47.263Z,58.86
2022-10-06T04:44:19.323Z,61.81
2022-10-06T04:46:47.255Z,64.32
2022-10-06T04:49:19.849Z,59.27
2022-10-06T04:51:49.495Z,55.29
2022-10-06T04:54:18.613Z,56.20
2022-10-06T04:56:46.699Z,59.01
2022-10-06T04:59:15.480Z,60.83
2022-10-06T05:01:44.581Z,63.80
2022-10-06T05:04:13.990Z,62.95
2022-10-06T05:06:42.078Z,60.01
2022-10-06T05:09:15.492Z,53.63
2022-10-06T05:11:48.300Z,53.31
2022-10-06T05:14:18.695Z,54.91
2022-10-06T05:16:48.752Z,57.31
2022-10-06T05:19:16.824Z,58.89
2022-10-06T05:21:44.471Z,61.11
2022-10-06T05:24:18.124Z,65.97
2022-10-06T05:26:45.805Z,64.28
2022-10-06T05:29:15.569Z,56.94
2022-10-06T05:31:44.968Z,54.78
2022-10-06T05:34:14.086Z,56.14
2022-10-06T05:36:41.738Z,59.10
2022-10-06T05:39:11.941Z,59.93
2022-10-06T05:41:44.546Z,61.46
2022-10-06T05:44:13.476Z,64.81
2022-10-06T05:46:42.049Z,64.11
2022-10-06T05:49:11.441Z,57.73
2022-10-06T05:51:42.668Z,54.29
2022-10-06T05:54:15.449Z,55.53
2022-10-06T05:56:44.130Z,56.81
2022-10-06T05:59:11.884Z,58.32
2022-10-06T06:01:40.666Z,59.45
2022-10-06T06:04:12.750Z,60.87
2022-10-06T06:06:44.956Z,65.61
2022-10-06T06:09:20.381Z,58.71
2022-10-06T06:11:50.936Z,55.18
2022-10-06T06:14:44.363Z,56.01
2022-10-06T06:17:15.983Z,55.89
2022-10-06T06:19:43.631Z,58.56
2022-10-06T06:22:11.484Z,59.36
2022-10-06T06:24:41.088Z,61.44
2022-10-06T06:27:09.508Z,64.30
2022-10-06T06:29:37.298Z,57.57
2022-10-06T06:32:05.036Z,54.27
2022-10-06T06:34:32.581Z,54.83
2022-10-06T06:37:06.316Z,56.44
2022-10-06T06:39:36.462Z,58.60
2022-10-06T06:42:05.168Z,58.76
2022-10-06T06:44:39.624Z,59.38
2022-10-06T06:47:24.386Z,60.48
2022-10-06T06:49:53.988Z,60.60
2022-10-06T06:52:23.267Z,63.07
2022-10-06T06:54:50.912Z,58.46
2022-10-06T06:57:19.418Z,55.51
2022-10-06T06:59:49.237Z,56.09
2022-10-06T07:02:17.717Z,57.71
2022-10-06T07:04:46.617Z,58.84
2022-10-06T07:07:16.769Z,59.49
2022-10-06T07:09:44.328Z,61.12
2022-10-06T07:12:13.367Z,65.47
2022-10-06T07:15:04.913Z,63.27
2022-10-06T07:17:56.556Z,56.56
2022-10-06T07:20:42.967Z,53.94
2022-10-06T07:23:34.820Z,54.33
2022-10-06T07:26:03.858Z,55.24
2022-10-06T07:28:31.640Z,56.70
2022-10-06T07:31:00.681Z,58.87
2022-10-06T07:33:32.357Z,59.97
2022-10-06T07:36:02.483Z,60.55
2022-10-06T07:38:30.692Z,61.18
2022-10-06T07:43:49.676Z,63.91
2022-10-06T07:46:19.459Z,61.58
2022-10-06T07:49:05.972Z,56.19
2022-10-06T07:51:33.887Z,53.38
2022-10-06T07:54:02.855Z,54.40
2022-10-06T07:56:39.867Z,55.78
2022-10-06T07:59:07.576Z,57.26
2022-10-06T08:01:35.238Z,57.43
2022-10-06T08:04:06.948Z,59.49
2022-10-06T08:06:34.753Z,60.04
2022-10-06T08:09:02.402Z,61.31
2022-10-06T08:11:30.250Z,61.49
2022-10-06T08:13:58.738Z,64.38
2022-10-06T08:16:30.715Z,63.49
2022-10-06T08:18:59.597Z,56.20
2022-10-06T08:21:29.847Z,53.12
2022-10-06T08:23:58.895Z,54.30
2022-10-06T08:26:28.392Z,55.57
2022-10-06T08:29:03.084Z,56.01
2022-10-06T08:31:32.385Z,57.66
2022-10-06T08:34:01.476Z,58.92
2022-10-06T08:36:31.848Z,58.48
2022-10-06T08:39:00.624Z,56.94
2022-10-06T08:41:43.092Z,57.07
2022-10-06T08:44:19.783Z,54.31
2022-10-06T08:47:02.388Z,51.39
2022-10-06T08:49:39.237Z,46.20
2022-10-06T08:52:20.461Z,40.77
2022-10-06T08:55:16.093Z,40.34
2022-10-06T08:58:08.195Z,36.72
2022-10-06T09:00:38.008Z,35.47
2022-10-06T09:03:07.557Z,33.06
2022-10-06T09:05:35.338Z,31.64
2022-10-06T09:08:08.926Z,30.27
2022-10-06T09:10:43.644Z,30.28
2022-10-06T09:13:22.091Z,30.16
2022-10-06T09:16:01.760Z,30.60
2022-10-06T09:19:03.344Z,31.89
2022-10-06T09:21:47.668Z,32.26
2022-10-06T09:24:25.338Z,34.21
2022-10-06T09:26:56.092Z,34.80
2022-10-06T09:29:24.008Z,35.56
2022-10-06T09:31:51.601Z,36.74
2022-10-06T09:34:34.967Z,36.42
2022-10-06T09:37:09.108Z,36.62
2022-10-06T09:39:42.538Z,33.78
2022-10-06T09:42:10.029Z,33.98
2022-10-06T09:44:52.811Z,32.37
2022-10-06T09:47:31.931Z,31.53
2022-10-06T09:50:17.709Z,30.58
2022-10-06T09:52:57.559Z,29.84
2022-10-06T09:55:37.147Z,29.32
2022-10-06T09:58:29.529Z,29.34
2022-10-06T10:01:00.797Z,28.50
2022-10-06T10:06:40.487Z,31.71
2022-10-06T10:09:21.324Z,33.04
2022-10-06T10:12:24.437Z,35.14
2022-10-06T10:14:54.239Z,36.72
2022-10-06T10:17:29.463Z,37.37
2022-10-06T10:19:57.555Z,38.06
2022-10-06T10:22:30.997Z,38.52
2022-10-06T10:25:17.311Z,38.60
2022-10-06T10:28:03.673Z,38.85
2022-10-06T10:30:40.548Z,38.66
2022-10-06T10:33:15.935Z,37.61
2022-10-06T10:35:52.780Z,36.56
2022-10-06T10:38:23.949Z,36.65
2022-10-06T10:41:02.544Z,36.40
2022-10-06T10:43:36.123Z,37.16
2022-10-06T10:46:08.749Z,37.85
2022-10-06T10:48:43.168Z,38.60
2022-10-06T10:51:19.121Z,39.12
2022-10-06T10:53:51.248Z,40.02
2022-10-06T10:56:24.197Z,41.47
2022-10-06T10:59:18.023Z,42.47
2022-10-06T11:01:58.901Z,43.28
2022-10-06T11:04:27.367Z,44.63
2022-10-06T11:07:11.104Z,45.40
2022-10-06T11:09:53.979Z,45.82
2022-10-06T11:12:59.331Z,46.50
2022-10-06T11:15:32.547Z,47.73
2022-10-06T11:18:21.429Z,49.60
2022-10-06T11:21:01.066Z,49.39
2022-10-06T11:23:37.152Z,50.06
2022-10-06T11:26:16.873Z,50.67
2022-10-06T11:28:52.828Z,50.45
2022-10-06T11:31:38.885Z,51.33
2022-10-06T11:34:06.934Z,51.98
2022-10-06T11:37:09.376Z,52.86
2022-10-06T11:39:45.908Z,51.98
2022-10-06T11:42:32.153Z,52.34
2022-10-06T11:45:04.339Z,52.57
2022-10-06T11:47:42.777Z,52.61
2022-10-06T11:50:49.170Z,52.50
2022-10-06T11:53:45.870Z,52.48
2022-10-06T11:56:17.741Z,52.64
2022-10-06T11:58:54.631Z,52.65
2022-10-06T12:01:45.344Z,52.75
2022-10-06T12:04:18.455Z,52.53
2022-10-06T12:06:53.480Z,52.59
2022-10-06T12:09:23.840Z,52.69
2022-10-06T12:12:19.131Z,52.86
2022-10-06T12:17:05.602Z,52.23
2022-10-06T12:18:07.400Z,51.95
2022-10-06T12:20:40.714Z,51.92
2022-10-06T12:23:08.193Z,51.16
2022-10-06T12:25:42.458Z,51.98
2022-10-06T12:28:35.421Z,51.06
2022-10-06T12:31:24.856Z,50.23
2022-10-06T12:33:52.532Z,49.79
2022-10-06T12:36:25.352Z,49.53
2022-10-06T12:39:02.494Z,49.33
2022-10-06T12:42:17.245Z,49.20
2022-10-06T12:44:50.049Z,48.84
2022-10-06T12:47:28.479Z,48.73
2022-10-06T12:50:07.488Z,48.81
2022-10-06T12:53:13.055Z,48.66
2022-10-06T12:55:51.442Z,48.82
2022-10-06T12:58:26.533Z,49.27
2022-10-06T13:01:00.143Z,49.72
2022-10-06T13:03:29.429Z,50.29
2022-10-06T13:06:06.719Z,50.51
2022-10-06T13:08:36.864Z,50.85
2022-10-06T13:11:26.803Z,51.44
2022-10-06T13:13:58.549Z,51.78
2022-10-06T13:16:29.423Z,52.39
2022-10-06T13:18:59.168Z,52.97
2022-10-06T13:21:29.866Z,53.38
2022-10-06T13:23:57.567Z,53.89
2022-10-06T13:26:32.755Z,54.33
2022-10-06T13:29:01.153Z,54.84
2022-10-06T13:31:36.594Z,54.87
2022-10-06T13:34:06.979Z,54.89
2022-10-06T13:36:38.679Z,54.64
2022-10-06T13:39:13.006Z,54.32
2022-10-06T13:41:44.875Z,53.88
2022-10-06T13:44:13.332Z,52.89
2022-10-06T13:46:51.037Z,50.93
2022-10-06T13:49:29.852Z,50.31
2022-10-06T13:52:02.703Z,50.07
2022-10-06T13:54:39.530Z,49.93
2022-10-06T13:57:38.233Z,50.07
2022-10-06T14:00:08.087Z,49.96
2022-10-06T14:02:36.441Z,50.08
2022-10-06T14:05:32.190Z,50.09
2022-10-06T14:08:02.686Z,50.10
2022-10-06T14:10:50.090Z,50.29
2022-10-06T14:13:36.204Z,50.45
2022-10-06T14:16:08.058Z,50.57
2022-10-06T14:18:40.105Z,50.39
2022-10-06T14:21:32.106Z,50.17
2022-10-06T14:24:04.728Z,49.23
2022-10-06T14:26:36.164Z,48.83
2022-10-06T14:29:04.435Z,48.70
2022-10-06T14:31:34.012Z,48.92
2022-10-06T14:34:02.705Z,49.30
2022-10-06T14:36:33.124Z,49.83
2022-10-06T14:39:01.411Z,50.27
2022-10-06T14:41:31.048Z,50.72
2022-10-06T14:44:08.916Z,51.22
2022-10-06T14:46:38.087Z,51.63
2022-10-06T14:49:10.451Z,51.92
2022-10-06T14:51:39.519Z,52.22
2022-10-06T14:54:07.905Z,52.57
2022-10-06T14:56:37.837Z,52.78
2022-10-06T14:59:08.314Z,52.89
2022-10-06T15:01:38.399Z,53.32
2022-10-06T15:04:09.005Z,53.30
2022-10-06T15:06:56.208Z,53.50
2022-10-06T15:09:24.157Z,53.76
2022-10-06T15:23:28.058Z,56.45
2022-10-06T15:26:13.189Z,56.45
2022-10-06T15:28:58.470Z,56.45
2022-10-06T15:31:26.179Z,56.58
2022-10-06T15:33:54.096Z,57.02
2022-10-06T15:36:26.567Z,56.99
2022-10-06T15:38:54.549Z,57.19
2022-10-06T15:41:21.873Z,56.97
2022-10-06T15:43:54.465Z,58.13
2022-10-06T15:46:40.941Z,58.35
2022-10-06T15:49:07.184Z,58.83
2022-10-06T15:51:36.333Z,59.54
2022-10-06T15:54:04.110Z,60.06
2022-10-06T15:56:31.506Z,60.47
2022-10-06T15:58:58.696Z,60.87
2022-10-06T16:01:38.480Z,61.13
2022-10-06T16:04:11.939Z,61.32
2022-10-06T16:06:42.828Z,61.83
2022-10-06T16:09:11.368Z,67.13
2022-10-06T16:11:38.927Z,68.35
2022-10-06T16:14:07.130Z,63.95
2022-10-06T16:16:33.813Z,58.55
2022-10-06T16:19:03.980Z,54.11
2022-10-06T16:21:31.828Z,53.38
2022-10-06T16:23:59.236Z,53.87
2022-10-06T16:26:27.524Z,54.68
2022-10-06T16:28:54.171Z,55.80
2022-10-06T16:31:20.729Z,56.69
2022-10-06T16:33:47.312Z,57.41
2022-10-06T16:36:15.182Z,58.50
2022-10-06T16:38:42.175Z,59.44
2022-10-06T16:41:09.710Z,60.44
2022-10-06T16:43:38.790Z,60.89
2022-10-06T16:46:10.351Z,66.11
2022-10-06T16:48:42.605Z,68.03
2022-10-06T16:51:14.765Z,64.72
2022-10-06T16:53:46.105Z,61.96
2022-10-06T16:56:19.862Z,56.96
2022-10-06T16:58:49.915Z,53.35
2022-10-06T17:01:16.854Z,52.74
2022-10-06T17:03:43.542Z,53.24
2022-10-06T17:06:15.724Z,53.90
2022-10-06T17:08:43.103Z,54.66
2022-10-06T17:11:15.464Z,55.71
2022-10-06T17:13:44.123Z,56.63
2022-10-06T17:16:13.962Z,58.04
2022-10-06T17:18:40.924Z,59.34
2022-10-06T17:21:39.610Z,60.40
2022-10-06T17:24:00.393Z,68.23
2022-10-06T17:26:31.617Z,67.93
2022-10-06T17:29:00.570Z,64.39
2022-10-06T17:31:33.399Z,59.41
2022-10-06T17:33:59.568Z,54.94
2022-10-06T17:36:26.249Z,54.05
2022-10-06T17:38:57.935Z,54.73
2022-10-06T17:41:28.851Z,55.52
2022-10-06T17:44:02.486Z,57.02
2022-10-06T17:46:35.645Z,58.44
2022-10-06T17:49:06.773Z,59.31
2022-10-06T17:51:34.605Z,60.38
2022-10-06T17:54:03.440Z,61.25
2022-10-06T17:56:34.715Z,67.37
2022-10-06T17:59:06.928Z,68.74
2022-10-06T18:01:34.942Z,64.89
2022-10-06T18:04:03.073Z,62.11
2022-10-06T18:06:31.475Z,57.34
2022-10-06T18:09:00.840Z,53.67
2022-10-06T18:11:38.904Z,53.27
2022-10-06T18:14:05.396Z,54.06
2022-10-06T18:16:36.079Z,55.39
2022-10-06T18:19:08.250Z,56.74
2022-10-06T18:21:38.993Z,58.11
2022-10-06T18:24:17.073Z,59.16
2022-10-06T18:26:47.549Z,59.57
2022-10-06T18:29:19.142Z,60.63
2022-10-06T18:31:48.366Z,66.54
2022-10-06T18:36:10.579Z,67.85
2022-10-06T18:37:01.698Z,63.94
2022-10-06T18:39:30.641Z,57.95
2022-10-06T18:41:58.624Z,54.10
2022-10-06T18:44:43.183Z,54.32
2022-10-06T18:47:27.815Z,55.08
2022-10-06T18:49:53.961Z,55.97
2022-10-06T18:52:20.967Z,57.45
2022-10-06T18:54:48.343Z,58.68
2022-10-06T18:57:14.530Z,59.51
2022-10-06T18:59:40.763Z,60.60
2022-10-06T19:02:07.105Z,66.28
2022-10-06T19:04:35.143Z,68.57
2022-10-06T19:07:02.046Z,65.48
2022-10-06T19:09:28.545Z,62.10
2022-10-06T19:11:57.103Z,57.79
2022-10-06T19:14:28.994Z,54.33
2022-10-06T19:17:01.432Z,53.95
2022-10-06T19:19:29.460Z,54.64
2022-10-06T19:22:01.879Z,55.37
2022-10-06T19:24:39.970Z,56.34
2022-10-06T19:27:10.590Z,57.50
2022-10-06T19:29:40.633Z,58.66
2022-10-06T19:32:07.570Z,60.16
2022-10-06T19:34:36.695Z,65.17
2022-10-06T19:37:04.436Z,67.85
2022-10-06T19:39:34.451Z,64.69
2022-10-06T19:42:19.588Z,61.77
2022-10-06T19:44:45.937Z,57.27
2022-10-06T19:47:16.700Z,54.06
2022-10-06T19:49:44.397Z,53.83
2022-10-06T19:52:12.031Z,54.37
2022-10-06T19:54:38.944Z,55.42
2022-10-06T19:57:06.414Z,56.92
2022-10-06T19:59:32.931Z,58.38
2022-10-06T20:02:00.228Z,58.81
2022-10-06T20:04:26.505Z,60.36
2022-10-06T20:06:53.045Z,66.49
2022-10-06T20:09:22.332Z,68.83
2022-10-06T20:11:50.674Z,65.28
2022-10-06T20:14:21.241Z,62.14
2022-10-06T20:16:49.794Z,57.56
2022-10-06T20:19:17.101Z,54.00
2022-10-06T20:21:43.625Z,53.57
2022-10-06T20:24:19.012Z,54.50
2022-10-06T20:26:47.223Z,55.66
2022-10-06T20:29:15.968Z,57.35
2022-10-06T20:31:45.199Z,58.44
2022-10-06T20:34:18.235Z,59.52
2022-10-06T20:36:45.316Z,60.61
2022-10-06T20:39:34.928Z,66.82
2022-10-06T20:42:02.217Z,69.29
2022-10-06T20:44:28.742Z,64.85
2022-10-06T20:46:54.978Z,61.94
2022-10-06T20:49:21.432Z,57.62
2022-10-06T20:51:51.924Z,53.94
2022-10-06T20:54:23.396Z,53.54
2022-10-06T20:56:51.925Z,54.24
2022-10-06T20:59:22.448Z,55.13
2022-10-06T21:01:50.600Z,56.01
2022-10-06T21:04:18.092Z,56.98
2022-10-06T21:06:45.083Z,58.41
2022-10-06T21:09:18.119Z,59.98
2022-10-06T21:11:45.403Z,61.13
2022-10-06T21:14:12.944Z,67.42
2022-10-06T21:16:41.990Z,69.40
2022-10-06T21:19:12.938Z,65.47
2022-10-06T21:21:41.344Z,62.35
2022-10-06T21:24:08.255Z,57.84
2022-10-06T21:26:35.465Z,54.18
2022-10-06T21:29:03.308Z,53.84
2022-10-06T21:31:30.194Z,54.36
2022-10-06T21:33:56.470Z,55.31
2022-10-06T21:36:25.186Z,56.61
2022-10-06T21:38:53.608Z,58.00
2022-10-06T21:41:32.049Z,59.25
2022-10-06T21:43:59.894Z,60.40
2022-10-06T21:46:30.339Z,66.23
2022-10-06T21:48:58.857Z,69.11
2022-10-06T21:51:27.353Z,65.44
2022-10-06T21:53:57.815Z,62.08
2022-10-06T21:56:25.632Z,57.63
2022-10-06T21:58:53.575Z,54.14
2022-10-06T22:01:21.915Z,53.73
2022-10-06T22:03:48.559Z,54.26
2022-10-06T22:06:19.074Z,55.03
2022-10-06T22:08:46.349Z,56.02
2022-10-06T22:11:19.054Z,57.76
2022-10-06T22:13:53.269Z,58.88
2022-10-06T22:16:22.543Z,60.25
2022-10-06T22:18:49.299Z,65.93
2022-10-06T22:21:18.462Z,68.55
2022-10-06T22:23:47.380Z,65.12
2022-10-06T22:26:15.036Z,61.96
2022-10-06T22:28:46.261Z,57.13
2022-10-06T22:31:13.660Z,53.84
2022-10-06T22:33:40.720Z,53.53
2022-10-06T22:36:09.436Z,54.12
2022-10-06T22:38:36.002Z,55.56
2022-10-06T22:41:08.749Z,56.81
2022-10-06T22:43:35.460Z,58.10
2022-10-06T22:46:02.372Z,59.16
2022-10-06T22:48:29.076Z,60.05
2022-10-06T22:50:55.272Z,65.52
2022-10-06T22:53:24.209Z,68.98
2022-10-06T22:55:51.546Z,65.18
2022-10-06T22:58:18.474Z,62.42
2022-10-06T23:00:45.135Z,58.28
2022-10-06T23:03:11.381Z,54.26
2022-10-06T23:05:38.766Z,53.66
2022-10-06T23:08:06.438Z,54.25
2022-10-06T23:10:34.259Z,55.57
2022-10-06T23:13:01.340Z,56.76
2022-10-06T23:15:27.993Z,58.10
2022-10-06T23:17:54.625Z,59.30
2022-10-06T23:20:20.827Z,60.50
2022-10-06T23:22:49.421Z,67.01
2022-10-06T23:25:16.118Z,69.40
2022-10-06T23:27:42.664Z,65.17
2022-10-06T23:30:09.486Z,62.14
2022-10-06T23:32:36.766Z,58.09
2022-10-06T23:35:03.739Z,54.21
2022-10-06T23:37:29.876Z,53.61
2022-10-06T23:39:56.023Z,54.24
2022-10-06T23:42:22.142Z,55.42
2022-10-06T23:44:48.292Z,56.53
2022-10-06T23:47:14.408Z,57.67
2022-10-06T23:49:42.794Z,58.64
2022-10-06T23:52:09.334Z,60.09
2022-10-06T23:54:35.462Z,61.01
2022-10-06T23:57:01.638Z,66.71
2022-10-06T23:59:28.812Z,69.41
